Flight Track Log - Related Links

Times and Time Zones

All times are in EDT time to prevent confusion due to time zone crossing. See the UAL4257 flight status page for this flight to view local times or setup timezone preferences in your user account.

Time Position Orientation Groundspeed Altitude Reporting Facility
EDT Latitude Longitude Course Direction KTS MPH feet Rate Location/Type
Sun 12:50:30 PM 26.5725 -99.5772 North 326 375 23,400  Level Houston Center
Sun 12:51:32 PM 26.6658 -99.5658 North 331 381 24,400 968 Climbing Houston Center
Sun 12:52:34 PM 26.7631 -99.5492 North 341 392 25,400 919 Climbing Houston Center
Sun 12:53:36 PM 26.8636 -99.5306 North 360 414 26,300 919 Climbing Houston Center
Sun 12:54:38 PM 26.9636 -99.5069 12° North 366 421 27,300 1,016 Climbing Houston Center
Sun 12:55:40 PM 27.0550 -99.4019 46° Northeast 386 444 28,400 1,016 Climbing Houston Center
Sun 12:56:42 PM 27.1278 -99.3106 48° Northeast 393 452 29,400 919 Climbing Houston Center
Sun 12:57:44 PM 27.2014 -99.2175 48° Northeast 397 457 30,300 919 Climbing Houston Center
Sun 12:58:46 PM 27.2775 -99.1231 48° Northeast 405 466 31,300 919 Climbing Houston Center
Sun 12:59:48 PM 27.3522 -99.0269 49° Northeast 410 472 32,200 823 Climbing Houston Center
Sun 01:00:50 PM 27.4364 -98.9231 48° Northeast 419 482 33,000 339 Climbing Houston Center
Sun 01:01:52 PM 27.5233 -98.8128 48° Northeast 444 511 32,900 -48 Descending Houston Center
Sun 01:02:54 PM 27.6031 -98.7117 48° Northeast 437 503 32,900 435 Level Houston Center
Sun 01:03:56 PM 27.6803 -98.6125 49° Northeast 426 490 33,800 1,161 Climbing Houston Center
Sun 01:04:58 PM 27.7728 -98.4947 48° Northeast 421 484 35,300 1,210 Climbing Houston Center
Sun 01:06:00 PM 27.8472 -98.3986 49° Northeast 410 472 36,300 774 Climbing Houston Center
Sun 01:07:02 PM 27.9214 -98.3039 48° Northeast 405 466 36,900 339 Climbing Houston Center
Sun 01:08:04 PM 27.9981 -98.2067 48° Northeast 411 473 37,000  Climbing Houston Center
Sun 01:09:06 PM 28.0775 -98.1042 49° Northeast 430 495 36,900 -48 Descending Houston Center
Sun 01:10:08 PM 28.1589 -98.0000 48° Northeast 439 505 36,900 48 Level Houston Center
Sun 01:11:10 PM 28.2478 -97.8861 48° Northeast 422 486 37,000 48 Climbing Houston Center
Sun 01:12:12 PM 28.3239 -97.7867 49° Northeast 419 482 37,000 -48 Level Houston Center
Sun 01:13:14 PM 28.4017 -97.6858 49° Northeast 423 487 36,900  Descending Houston Center
Sun 01:14:16 PM 28.4831 -97.5803 49° Northeast 438 504 37,000  Climbing Houston Center
Sun 01:15:18 PM 28.5642 -97.4736 49° Northeast 444 511 36,900 -726 Descending Houston Center
Sun 01:16:20 PM 28.6617 -97.3450 49° Northeast 447 514 35,500 -1,452 Descending Houston Center
Sun 01:17:22 PM 28.7417 -97.2408 49° Northeast 442 509 33,900 -1,548 Descending Houston Center
Sun 01:18:24 PM 28.8203 -97.1369 49° Northeast 436 502 32,300 -1,984 Descending Houston Center
Sun 01:19:26 PM 28.9031 -97.0286 49° Northeast 448 516 29,800 -2,952 Descending Houston Center
Sun 01:20:28 PM 28.9911 -96.9108 49° Northeast 481 554 26,200 -3,387 Descending Houston Center
Sun 01:21:30 PM 29.0942 -96.7739 49° Northeast 480 552 22,800 -2,952 Descending Houston Center
Sun 01:22:32 PM 29.1717 -96.6683 50° Northeast 449 517 20,100 -2,634 Descending Houston Center
Sun 01:23:33 PM 29.2453 -96.5711 49° Northeast 414 476 17,400 -2,618 Descending Houston Center
Sun 01:24:22 PM 29.3103 -96.4850 49° Northeast 381 438 15,300 -2,229 Descending Houston Center
Sun 01:25:18 PM 29.3706 -96.4042 49° Northeast 381 438 13,500 -1,840 Descending Houston Center
Sun 01:25:37 PM 29.3822 -96.3872 52° Northeast 380 437 13,000 -2,060 Descending Houston Center
Sun 01:26:25 PM 29.4517 -96.2969 49° Northeast 382 440 11,200 -1,689 Descending Houston Center
Sun 01:27:20 PM 29.5119 -96.2136 50° Northeast 367 422 10,100 -947 Descending Houston Center
Sun 01:27:41 PM 29.5289 -96.1886 52° Northeast 366 421 10,000 -98 Descending Houston Center
Sun 01:28:21 PM 29.5689 -96.1208 56° Northeast 360 414 10,000  Level Houston Center
Sun 01:28:43 PM 29.5842 -96.0922 58° Northeast 364 419 10,000  Level Houston Center
Sun 01:29:23 PM 29.6156 -96.0292 60° Northeast 326 375 10,000 -387 Level Houston Center
Sun 01:29:45 PM 29.6269 -96.0053 61° Northeast 311 358 9,600 -1,869 Descending Houston Center
Sun 01:30:24 PM 29.6633 -95.9517 52° Northeast 270 311 8,100 -1,935 Descending Houston Center
Sun 01:30:47 PM 29.6886 -95.9353 29° Northeast 280 322 7,600 -1,000 Descending Houston Center
Sun 01:31:30 PM 29.7333 -95.9100 26° Northeast 245 282 7,000 -581 Descending Houston Center
Sun 01:31:49 PM 29.7508 -95.9000 26° Northeast 254 292 7,000  Level Houston Center
Sun 01:32:32 PM 29.7911 -95.8767 27° Northeast 227 261 7,000  Level Houston Center
Sun 01:32:51 PM 29.8078 -95.8681 24° Northeast 231 266 7,000  Level Houston Center
Sun 01:33:27 PM 29.8453 -95.8489 24° Northeast 233 268 7,000 -387 Level Houston Center
Sun 01:33:53 PM 29.8658 -95.8364 28° Northeast 230 265 6,600 -1,082 Descending Houston Center
Sun 01:34:28 PM 29.9014 -95.8158 27° Northeast 226 260 5,900 -968 Descending Houston Center
Sun 01:34:55 PM 29.9225 -95.8039 26° Northeast 228 262 5,600 -885 Descending Houston Center
Sun 01:35:29 PM 29.9517 -95.7692 46° Northeast 219 252 5,000 -581 Descending Houston Center
Sun 01:35:57 PM 29.9611 -95.7511 59° Northeast 225 259 5,000 -197 Level Houston Center
Sun 01:36:30 PM 29.9817 -95.7053 63° Northeast 231 266 4,800 -581 Descending Houston Center
Sun 01:36:59 PM 29.9914 -95.6867 59° Northeast 228 262 4,400 -1,279 Descending Houston Center
Sun 01:37:31 PM 29.9922 -95.6342 89° East 230 265 3,500 -1,161 Descending Houston Center
Sun 01:38:01 PM 29.9942 -95.5989 86° East 228 262 3,200 -441 Descending Houston Center
Sun 01:38:39 PM 29.9933 -95.5544 91° East 212 244 3,000 -194 Descending Houston Center
Sun 01:39:03 PM 29.9936 -95.5308 89° East 218 251 3,000 -600 Level Houston Center
Sun 01:39:39 PM 29.9919 -95.4919 93° East 199 229 2,400 -968 Descending Houston Center
Sun 01:40:05 PM 29.9933 -95.4678 86° East 208 239 2,000 -968 Descending Houston Center
Sun 01:40:41 PM 29.9928 -95.4314 91° East 186 214 1,400 -857 Descending Houston Center
Sun 01:41:08 PM 29.9939 -95.4111 86° East 194 223 1,100 -787 Descending Houston Center
Sun 01:41:42 PM 29.9928 -95.3833 93° East 136 157 600 -774 Descending Houston Center
Sun 01:42:10 PM 29.9936 -95.3672 87° East 164 189 300 -643 Descending Houston Center
Sun 01:44:00 PM 29.9833 -95.3333 49° Northeast  Level FlightAware Approximate

Login

Don't have an account? Register now (free) for customized features, flight alerts, and more!